Taboao da Serra, Brazil
Current Conditions -  °F | °C
As of 3:00 AM on Wednesday 26 Nov 2014 (Local Time) from SBSP Reporting Station
Light Rain Light Rain  
Wind Chill: 70°   Ceiling: Unl
Heat Index: 70°   Visibility: 6mi
Dew Point: 64°   Wind: 7mph
Humidity: 83%   Direction: 10°N
Pressure: 29.85"   Gusts: NA
Location:  23.6°S, 46.78°W
Report Text: SBSP 260500Z 01006KT 9999 -RA NSC 21/18 Q1011
Loading
Personal Weather Stations






























Interactive Weather Map New forecast layout! Learn more

10-Day Weather Forecast

Advertisements
Track Severe Weather on mobile